Platzwetter Flugplatz Wels

Flugwetter Linz LOWL

[Quelle: ADDS]
METAR
LOWL 292250Z AUTO 28012KT 9999 OVC020 M00/M03 Q1024 =
LOWL 291715Z 2918/3018 28008KT 9999 BKN025 TX03/3017Z TNM03/3001Z FM300800 29015G30KT 9999 BKN020 BECMG 3010/3012 4000 -SN BKN010 TEMPO 3011/3015 1000 SHSN BKN005 PROB30 TEMPO 3012/3014 30020G40KT 0300 +SHSN VV002
TAF
LOWL 131715Z 1318/1418 27010KT 9999 SCT050 TX08/1414Z TN04/1407Z TEMPO 1318/1319 28015G25KT -SHRA TEMPO 1409/1412 VRB03KT BECMG 1412/1414 09005KT =

Flugwetter Salzburg LOWS

[Quelle: ADDS]
METAR
LOWS 131220Z 15005KT 9999 FEW080 SCT090 08/01 Q1014 NOSIG =
LOWS 131115Z 1312/1412 15007KT 9999 FEW060 BKN090 TX08/1412Z TN02/1407Z TEMPO 1312/1403 -RA BKN060 BECMG 1315/1317 22006KT PROB30 TEMPO 1315/1322 32008KT SHRA BECMG 1405/1407 15008KT
TAF
COR LOWS 291715Z 2918/3018 15005KT 9999 SCT025 TX04/3018Z TNM04/3002Z TEMPO 2918/2924 34005KT BKN025 BECMG 3007/3009 29008KT SCT040 BKN080 TEMPO 3009/3012 29015G25KT TEMPO 3012/3018 30020G30KT 4000 SHSNRA SCT015 BKN025 =

Wind - Verlauf

Windrichtung - Verlauf

Temperatur - Verlauf

Relative Luftfeuchtigkeit - Verlauf

Luftdruck - Verlauf